createdAt,value
2019-05-30T00:01:40.784Z,2.00
2019-05-30T00:04:04.899Z,2.20
2019-05-30T00:06:28.458Z,2.73
2019-05-30T00:08:51.951Z,2.40
2019-05-30T00:11:15.829Z,2.17
2019-05-30T00:13:39.706Z,2.50
2019-05-30T00:16:03.195Z,3.30
2019-05-30T00:18:26.604Z,3.20
2019-05-30T00:20:50.085Z,3.07
2019-05-30T00:23:13.507Z,2.60
2019-05-30T00:25:36.987Z,2.67
2019-05-30T00:28:01.351Z,2.83
2019-05-30T00:30:25.068Z,2.50
2019-05-30T00:32:48.439Z,2.23
2019-05-30T00:35:12.097Z,2.10
2019-05-30T00:37:35.582Z,2.17
2019-05-30T00:39:59.889Z,1.97
2019-05-30T00:42:23.392Z,2.00
2019-05-30T00:44:46.818Z,2.47
2019-05-30T00:47:10.266Z,2.30
2019-05-30T00:49:33.687Z,2.10
2019-05-30T00:51:58.311Z,1.73
2019-05-30T00:54:21.831Z,2.03
2019-05-30T00:56:45.287Z,2.30
2019-05-30T00:59:08.732Z,1.80
2019-05-30T01:01:32.214Z,2.17
2019-05-30T01:03:56.708Z,1.90
2019-05-30T01:06:20.316Z,2.07
2019-05-30T01:08:43.739Z,1.60
2019-05-30T01:11:07.496Z,2.00
2019-05-30T01:13:30.987Z,1.87
2019-05-30T01:15:54.412Z,1.90
2019-05-30T01:18:17.871Z,1.90
2019-05-30T01:20:41.330Z,2.07
2019-05-30T01:23:05.346Z,2.07
2019-05-30T01:25:28.845Z,2.03
2019-05-30T01:27:52.311Z,1.90
2019-05-30T01:30:16.276Z,2.43
2019-05-30T01:32:39.733Z,2.80
2019-05-30T01:35:03.857Z,2.37
2019-05-30T01:37:28.063Z,2.13
2019-05-30T01:39:51.521Z,2.20
2019-05-30T01:42:14.942Z,1.90
2019-05-30T01:44:38.359Z,2.60
2019-05-30T01:47:02.054Z,2.20
2019-05-30T01:49:25.516Z,2.20
2019-05-30T01:51:48.964Z,2.33
2019-05-30T01:54:12.393Z,1.90
2019-05-30T01:56:35.848Z,2.27
2019-05-30T01:59:00.364Z,1.97
2019-05-30T02:01:25.642Z,2.00
2019-05-30T02:03:49.299Z,1.87
2019-05-30T02:06:12.760Z,2.40
2019-05-30T02:08:36.186Z,2.10
2019-05-30T02:10:59.638Z,2.40
2019-05-30T02:13:23.083Z,2.33
2019-05-30T02:15:46.542Z,2.30
2019-05-30T02:18:10.226Z,2.30
2019-05-30T02:20:33.685Z,2.17
2019-05-30T02:22:57.452Z,2.10
2019-05-30T02:25:21.141Z,1.63
2019-05-30T02:27:44.558Z,2.03
2019-05-30T02:30:12.485Z,2.03
2019-05-30T02:32:35.037Z,2.10
2019-05-30T02:34:58.483Z,2.30
2019-05-30T02:37:21.918Z,2.17
2019-05-30T02:39:45.388Z,2.40
2019-05-30T02:42:09.695Z,2.20
2019-05-30T02:44:33.739Z,2.20
2019-05-30T02:47:01.294Z,2.10
2019-05-30T02:49:24.998Z,2.00
2019-05-30T02:51:48.527Z,2.17
2019-05-30T02:54:13.234Z,2.27
2019-05-30T02:56:36.873Z,2.33
2019-05-30T02:59:01.470Z,2.13
2019-05-30T03:01:25.131Z,2.47
2019-05-30T03:03:48.550Z,2.40
2019-05-30T03:06:13.812Z,2.47
2019-05-30T03:08:37.648Z,2.00
2019-05-30T03:11:02.446Z,2.10
2019-05-30T03:13:26.409Z,2.97
2019-05-30T03:15:50.134Z,2.20
2019-05-30T03:18:14.931Z,2.13
2019-05-30T03:20:38.748Z,2.17
2019-05-30T03:23:03.247Z,2.10
2019-05-30T03:25:27.348Z,2.37
2019-05-30T03:27:50.846Z,2.20
2019-05-30T03:30:25.888Z,2.37
2019-05-30T03:33:03.321Z,2.40
2019-05-30T03:35:14.452Z,2.27
2019-05-30T03:37:31.297Z,2.43
2019-05-30T03:39:54.833Z,2.33
2019-05-30T03:42:18.569Z,2.33
2019-05-30T03:44:41.989Z,2.43
2019-05-30T03:47:08.617Z,2.27
2019-05-30T03:49:35.550Z,2.30
2019-05-30T03:52:01.075Z,2.40
2019-05-30T03:54:26.514Z,2.30
2019-05-30T03:57:01.800Z,2.23
2019-05-30T03:59:28.252Z,2.30
2019-05-30T04:02:03.728Z,2.63
2019-05-30T04:04:30.178Z,2.40
2019-05-30T04:07:02.669Z,2.30
2019-05-30T04:09:27.981Z,2.40
2019-05-30T04:12:16.081Z,2.53
2019-05-30T04:14:42.674Z,2.83
2019-05-30T04:17:08.148Z,2.57
2019-05-30T04:19:31.259Z,2.80
2019-05-30T04:21:54.718Z,2.70
2019-05-30T04:24:19.620Z,2.90
2019-05-30T04:26:43.263Z,2.40
2019-05-30T04:29:07.977Z,2.57
2019-05-30T04:31:31.509Z,2.33
2019-05-30T04:33:54.956Z,3.00
2019-05-30T04:36:19.160Z,2.63
2019-05-30T04:38:42.923Z,2.50
2019-05-30T04:41:06.353Z,2.33
2019-05-30T04:43:29.803Z,2.40
2019-05-30T04:45:53.215Z,2.47
2019-05-30T04:48:18.363Z,2.60
2019-05-30T04:50:41.814Z,2.87
2019-05-30T04:53:05.264Z,2.30
2019-05-30T04:55:28.699Z,2.63
2019-05-30T04:57:52.150Z,2.83
2019-05-30T05:00:17.082Z,2.63
2019-05-30T05:02:40.737Z,3.23
2019-05-30T05:05:09.475Z,3.10
2019-05-30T05:07:32.895Z,2.90
2019-05-30T05:09:56.358Z,3.13
2019-05-30T05:12:20.413Z,3.10
2019-05-30T05:14:43.897Z,3.03
2019-05-30T05:17:07.309Z,3.00
2019-05-30T05:19:30.761Z,3.13
2019-05-30T05:21:54.549Z,2.80
2019-05-30T05:24:19.346Z,3.80
2019-05-30T05:26:43.215Z,3.73
2019-05-30T05:29:06.685Z,3.50
2019-05-30T05:31:30.098Z,3.57
2019-05-30T05:33:56.647Z,3.33
2019-05-30T05:36:18.868Z,4.00
2019-05-30T05:38:42.303Z,3.50
2019-05-30T05:41:05.721Z,3.87
2019-05-30T05:43:29.498Z,3.67
2019-05-30T05:45:52.929Z,3.80
2019-05-30T05:48:16.586Z,3.83
2019-05-30T05:50:40.176Z,4.20
2019-05-30T05:53:03.637Z,3.83
2019-05-30T05:55:27.052Z,3.50
2019-05-30T05:57:50.515Z,3.97
2019-05-30T06:00:14.213Z,4.10
2019-05-30T06:02:37.664Z,3.53
2019-05-30T06:05:01.090Z,3.53
2019-05-30T06:07:24.648Z,3.27
2019-05-30T06:09:48.030Z,3.17
2019-05-30T06:12:11.483Z,2.60
2019-05-30T06:14:35.233Z,3.47
2019-05-30T06:16:58.690Z,3.77
2019-05-30T06:19:23.217Z,3.30
2019-05-30T06:21:54.145Z,3.60
2019-05-30T06:24:12.010Z,3.03
2019-05-30T06:26:35.437Z,3.73
2019-05-30T06:28:58.919Z,3.47
2019-05-30T06:31:22.514Z,3.37
2019-05-30T06:33:45.949Z,3.87
2019-05-30T06:36:09.408Z,3.73
2019-05-30T06:38:32.831Z,3.60
2019-05-30T06:40:56.298Z,3.53
2019-05-30T06:43:19.948Z,3.93
2019-05-30T06:45:43.315Z,4.00
2019-05-30T06:48:06.775Z,4.00
2019-05-30T06:50:30.944Z,4.23
2019-05-30T06:52:54.389Z,4.70
2019-05-30T06:55:18.225Z,5.00
2019-05-30T06:57:41.737Z,5.27
2019-05-30T07:00:09.583Z,5.10
2019-05-30T07:02:33.150Z,4.90
2019-05-30T07:04:57.233Z,5.27
2019-05-30T07:07:22.314Z,5.40
2019-05-30T07:09:46.025Z,4.87
2019-05-30T07:12:11.877Z,4.60
2019-05-30T07:14:34.620Z,3.90
2019-05-30T07:16:59.796Z,3.77
2019-05-30T07:19:23.399Z,4.00
2019-05-30T07:21:46.911Z,3.87
2019-05-30T07:24:10.334Z,4.33
2019-05-30T07:26:34.076Z,4.10
2019-05-30T07:29:00.631Z,5.20
2019-05-30T07:31:24.012Z,6.00
2019-05-30T07:33:47.656Z,5.63
2019-05-30T07:36:11.110Z,5.97
2019-05-30T07:38:34.756Z,6.03
2019-05-30T07:40:58.269Z,5.33
2019-05-30T07:43:24.815Z,3.77
2019-05-30T07:45:57.682Z,3.63
2019-05-30T07:48:12.068Z,3.13
2019-05-30T07:50:35.557Z,3.70
2019-05-30T07:52:59.020Z,3.87
2019-05-30T07:55:22.522Z,3.97
2019-05-30T07:57:45.986Z,3.43
2019-05-30T08:00:11.819Z,3.43
2019-05-30T08:02:35.819Z,3.13
2019-05-30T08:04:59.298Z,3.07
2019-05-30T08:07:23.084Z,3.30
2019-05-30T08:09:46.536Z,3.83
2019-05-30T08:12:09.961Z,3.33
2019-05-30T08:14:33.400Z,3.47
2019-05-30T08:16:56.857Z,3.00
2019-05-30T08:19:20.287Z,3.50
2019-05-30T08:21:43.721Z,3.60
2019-05-30T08:24:07.172Z,3.20
2019-05-30T08:26:30.627Z,3.00
2019-05-30T08:28:54.057Z,3.40
2019-05-30T08:31:17.517Z,2.87
2019-05-30T08:33:41.037Z,3.40
2019-05-30T08:36:05.665Z,3.00
2019-05-30T08:38:29.518Z,3.50
2019-05-30T08:40:52.938Z,3.23
2019-05-30T08:43:16.389Z,3.70
2019-05-30T08:45:40.022Z,3.30
2019-05-30T08:48:03.443Z,3.50
2019-05-30T08:50:26.925Z,2.60
2019-05-30T08:52:50.624Z,2.60
2019-05-30T08:55:14.482Z,2.93
2019-05-30T08:57:38.678Z,2.67
2019-05-30T09:00:02.144Z,2.60
2019-05-30T09:02:26.012Z,2.10
2019-05-30T09:04:49.439Z,2.50
2019-05-30T09:07:12.901Z,2.50
2019-05-30T09:09:36.319Z,2.93
2019-05-30T09:11:59.783Z,2.60
2019-05-30T09:14:23.200Z,2.20
2019-05-30T09:16:48.256Z,2.20
2019-05-30T09:19:11.844Z,2.07
2019-05-30T09:21:35.261Z,2.30
2019-05-30T09:24:01.268Z,2.20
2019-05-30T09:26:23.862Z,2.40
2019-05-30T09:28:48.287Z,2.30
2019-05-30T09:31:11.830Z,2.40
2019-05-30T09:33:42.769Z,2.80
2019-05-30T09:36:13.289Z,2.37
2019-05-30T09:38:31.479Z,1.80
2019-05-30T09:40:55.161Z,2.00
2019-05-30T09:43:18.590Z,2.40
2019-05-30T09:45:42.378Z,2.53
2019-05-30T09:48:05.895Z,2.33
2019-05-30T09:50:29.315Z,2.90
2019-05-30T09:52:52.740Z,3.27
2019-05-30T09:55:16.333Z,2.73
2019-05-30T09:57:39.787Z,2.63
2019-05-30T10:00:05.261Z,2.60
2019-05-30T10:02:28.706Z,2.67
2019-05-30T10:04:52.563Z,1.87
2019-05-30T10:07:16.076Z,2.37
2019-05-30T10:09:39.527Z,2.30
2019-05-30T10:12:02.987Z,2.27
2019-05-30T10:14:26.404Z,2.25
2019-05-30T10:16:54.366Z,2.98
2019-05-30T10:19:15.810Z,2.77
2019-05-30T10:21:39.237Z,2.50
2019-05-30T10:24:02.697Z,2.47
2019-05-30T10:26:26.122Z,2.35
2019-05-30T10:28:49.688Z,1.80
2019-05-30T10:31:13.074Z,1.85
2019-05-30T10:33:36.863Z,1.90
2019-05-30T10:36:00.299Z,2.15
2019-05-30T10:38:23.746Z,2.37
2019-05-30T10:40:48.702Z,1.73
2019-05-30T10:43:12.375Z,1.70
2019-05-30T10:45:38.625Z,2.12
2019-05-30T10:48:00.978Z,2.42
2019-05-30T10:50:25.769Z,2.52
2019-05-30T10:52:49.481Z,2.15
2019-05-30T10:55:13.671Z,2.17
2019-05-30T10:57:37.527Z,2.20
2019-05-30T11:00:00.993Z,2.37
2019-05-30T11:02:24.425Z,1.92
2019-05-30T11:04:48.982Z,2.10
2019-05-30T11:07:15.534Z,2.03
2019-05-30T11:09:42.321Z,2.10
2019-05-30T11:12:05.779Z,2.10
2019-05-30T11:14:29.265Z,2.17
2019-05-30T11:16:53.782Z,1.60
2019-05-30T11:19:17.319Z,1.90
2019-05-30T11:21:40.780Z,2.17
2019-05-30T11:24:04.197Z,2.05
2019-05-30T11:26:27.651Z,2.20
2019-05-30T11:28:51.073Z,1.90
2019-05-30T11:31:14.526Z,2.10
2019-05-30T11:33:37.986Z,1.92
2019-05-30T11:36:01.407Z,2.02
2019-05-30T11:38:24.890Z,1.92
2019-05-30T11:40:49.271Z,1.70
2019-05-30T11:43:12.850Z,1.70
2019-05-30T11:45:36.303Z,2.15
2019-05-30T11:48:00.126Z,2.20
2019-05-30T11:50:24.990Z,1.75
2019-05-30T11:52:49.742Z,2.02
2019-05-30T11:55:13.847Z,2.57
2019-05-30T11:57:37.272Z,2.00
2019-05-30T12:00:00.700Z,2.20
2019-05-30T12:02:24.158Z,2.00
2019-05-30T12:04:47.609Z,1.87
2019-05-30T12:07:11.061Z,1.87
2019-05-30T12:09:34.498Z,1.80
2019-05-30T12:11:59.151Z,2.07
2019-05-30T12:14:22.767Z,2.08
2019-05-30T12:16:46.229Z,1.90
2019-05-30T12:19:09.663Z,2.20
2019-05-30T12:21:33.122Z,1.75
2019-05-30T12:23:56.545Z,1.70
2019-05-30T12:26:20.001Z,2.00
2019-05-30T12:28:43.453Z,1.98
2019-05-30T12:31:06.982Z,2.00
2019-05-30T12:33:30.451Z,1.90
2019-05-30T12:35:54.398Z,1.90
2019-05-30T12:38:18.244Z,1.82
2019-05-30T12:40:41.699Z,1.77
2019-05-30T12:43:05.186Z,2.30
2019-05-30T12:45:29.026Z,1.80
2019-05-30T12:47:53.010Z,1.85
2019-05-30T12:50:17.275Z,1.90
2019-05-30T12:52:40.653Z,2.08
2019-05-30T12:55:08.907Z,1.84
2019-05-30T12:57:32.327Z,1.98
2019-05-30T12:59:56.771Z,2.17
2019-05-30T13:02:20.297Z,2.05
2019-05-30T13:04:43.727Z,2.30
2019-05-30T13:07:07.644Z,2.10
2019-05-30T13:09:31.199Z,2.20
2019-05-30T13:11:54.661Z,2.00
2019-05-30T13:14:18.127Z,2.33
2019-05-30T13:16:41.549Z,2.40
2019-05-30T13:19:06.373Z,2.45
2019-05-30T13:21:29.896Z,2.80
2019-05-30T13:23:53.319Z,1.95
2019-05-30T13:26:16.775Z,2.30
2019-05-30T13:28:40.233Z,2.65
2019-05-30T13:31:04.514Z,2.35
2019-05-30T13:33:27.995Z,2.95
2019-05-30T13:35:51.784Z,2.90
2019-05-30T13:38:26.056Z,2.52
2019-05-30T13:40:40.409Z,2.90
2019-05-30T13:43:04.034Z,2.92
2019-05-30T13:45:27.579Z,2.62
2019-05-30T13:47:51.001Z,2.92
2019-05-30T13:50:16.068Z,3.03
2019-05-30T13:52:39.916Z,2.72
2019-05-30T13:55:05.382Z,2.60
2019-05-30T13:57:28.782Z,3.25
2019-05-30T13:59:52.206Z,3.10
2019-05-30T14:02:15.673Z,2.63
2019-05-30T14:04:39.104Z,3.10
2019-05-30T14:07:02.566Z,2.47
2019-05-30T14:09:25.992Z,2.62
2019-05-30T14:11:49.462Z,2.58
2019-05-30T14:14:12.880Z,2.62
2019-05-30T14:16:36.345Z,2.90
2019-05-30T14:19:01.025Z,2.92
2019-05-30T14:21:24.514Z,2.27
2019-05-30T14:23:47.940Z,2.50
2019-05-30T14:26:11.645Z,2.08
2019-05-30T14:28:35.207Z,1.98
2019-05-30T14:30:58.637Z,1.90
2019-05-30T14:33:22.087Z,1.60
2019-05-30T14:35:45.538Z,1.90
2019-05-30T14:38:08.974Z,1.50
2019-05-30T14:40:32.761Z,1.90
2019-05-30T14:42:56.227Z,1.70
2019-05-30T14:45:21.728Z,1.63
2019-05-30T14:47:45.159Z,1.50
2019-05-30T14:50:11.137Z,1.70
2019-05-30T14:52:34.657Z,1.85
2019-05-30T14:54:58.473Z,1.52
2019-05-30T14:57:21.907Z,1.60
2019-05-30T14:59:45.373Z,1.90
2019-05-30T15:02:09.180Z,1.60
2019-05-30T15:04:32.752Z,1.70
2019-05-30T15:06:56.192Z,1.82
2019-05-30T15:09:25.848Z,1.50
2019-05-30T15:11:44.822Z,1.40
2019-05-30T15:14:08.703Z,1.32
2019-05-30T15:16:32.174Z,1.50
2019-05-30T15:18:55.614Z,1.62
2019-05-30T15:21:19.086Z,1.35
2019-05-30T15:23:42.512Z,1.55
2019-05-30T15:26:06.075Z,1.75
2019-05-30T15:28:29.461Z,1.90
2019-05-30T15:30:53.296Z,1.82
2019-05-30T15:33:16.764Z,1.60
2019-05-30T15:35:40.185Z,1.90
2019-05-30T15:38:03.622Z,1.90
2019-05-30T15:40:27.081Z,1.80
2019-05-30T15:42:53.188Z,1.65
2019-05-30T15:45:16.407Z,1.60
2019-05-30T15:47:39.831Z,1.80
2019-05-30T15:50:03.868Z,1.83
2019-05-30T15:52:27.305Z,1.90
2019-05-30T15:54:50.747Z,2.10
2019-05-30T15:57:15.590Z,1.90
2019-05-30T15:59:39.103Z,1.83
2019-05-30T16:02:02.900Z,2.17
2019-05-30T16:04:26.322Z,1.87
2019-05-30T16:06:49.782Z,1.80
2019-05-30T16:09:13.253Z,2.35
2019-05-30T16:11:36.705Z,2.13
2019-05-30T16:14:00.523Z,2.50
2019-05-30T16:16:38.817Z,2.30
2019-05-30T16:18:49.211Z,2.40
2019-05-30T16:21:14.517Z,4.10
2019-05-30T16:23:37.833Z,2.52
2019-05-30T16:26:01.265Z,2.40
2019-05-30T16:28:25.993Z,2.83
2019-05-30T16:30:49.529Z,2.20
2019-05-30T16:33:13.959Z,2.07
2019-05-30T16:35:37.492Z,1.87
2019-05-30T16:38:00.952Z,2.60
2019-05-30T16:40:24.377Z,2.47
2019-05-30T16:42:47.836Z,2.67
2019-05-30T16:45:12.161Z,2.27
2019-05-30T16:47:35.987Z,2.43
2019-05-30T16:49:59.453Z,2.20
2019-05-30T16:52:23.196Z,2.10
2019-05-30T16:54:46.712Z,2.50
2019-05-30T16:57:10.154Z,2.12
2019-05-30T16:59:33.845Z,1.90
2019-05-30T17:01:58.586Z,1.60
2019-05-30T17:04:23.000Z,1.60
2019-05-30T17:06:46.460Z,1.93
2019-05-30T17:09:09.888Z,1.73
2019-05-30T17:11:33.352Z,1.70
2019-05-30T17:13:56.775Z,1.80
2019-05-30T17:16:20.260Z,1.77
2019-05-30T17:18:43.666Z,1.80
2019-05-30T17:21:07.118Z,2.07
2019-05-30T17:23:30.531Z,1.70
2019-05-30T17:25:53.985Z,1.57
2019-05-30T17:28:18.119Z,1.73
2019-05-30T17:30:41.637Z,1.57
2019-05-30T17:33:05.051Z,1.40
2019-05-30T17:35:28.635Z,1.33
2019-05-30T17:37:52.093Z,1.63
2019-05-30T17:40:16.106Z,1.50
2019-05-30T17:42:39.526Z,1.50
2019-05-30T17:45:03.062Z,1.60
2019-05-30T17:47:27.474Z,1.43
2019-05-30T17:49:51.341Z,1.63
2019-05-30T17:52:15.037Z,1.80
2019-05-30T17:54:38.504Z,1.80
2019-05-30T17:57:01.925Z,1.50
2019-05-30T17:59:26.413Z,1.70
2019-05-30T18:01:49.888Z,1.70
2019-05-30T18:04:13.348Z,1.53
2019-05-30T18:06:37.122Z,1.47
2019-05-30T18:09:00.600Z,1.70
2019-05-30T18:11:31.304Z,2.00
2019-05-30T18:14:00.977Z,2.10
2019-05-30T18:19:05.124Z,1.83
2019-05-30T18:21:37.623Z,2.30
2019-05-30T18:24:08.041Z,2.40
2019-05-30T18:26:40.377Z,2.40
2019-05-30T18:29:10.542Z,2.23
2019-05-30T18:31:41.750Z,2.03
2019-05-30T18:34:10.591Z,1.90
2019-05-30T18:36:42.932Z,2.40
2019-05-30T18:39:14.109Z,2.20
2019-05-30T18:41:43.113Z,2.00
2019-05-30T18:44:12.862Z,1.83
2019-05-30T18:46:46.019Z,1.93
2019-05-30T18:49:16.482Z,2.13
2019-05-30T18:51:49.656Z,2.00
2019-05-30T18:54:19.864Z,2.00
2019-05-30T18:56:50.016Z,2.30
2019-05-30T18:59:20.083Z,2.00
2019-05-30T19:01:51.986Z,1.90
2019-05-30T19:04:22.831Z,2.20
2019-05-30T19:06:53.137Z,2.10
2019-05-30T19:09:25.086Z,2.10
2019-05-30T19:11:56.757Z,2.10
2019-05-30T19:14:32.485Z,1.60
2019-05-30T19:17:02.491Z,2.20
2019-05-30T19:19:33.815Z,2.10
2019-05-30T19:22:04.758Z,2.23
2019-05-30T19:24:35.798Z,1.87
2019-05-30T19:27:04.927Z,1.90
2019-05-30T19:29:28.949Z,2.33
2019-05-30T19:31:52.473Z,1.90
2019-05-30T19:34:22.908Z,2.20
2019-05-30T19:36:56.264Z,2.00
2019-05-30T19:39:27.754Z,2.20
2019-05-30T19:41:59.951Z,2.30
2019-05-30T19:44:31.958Z,2.00
2019-05-30T19:47:05.139Z,2.30
2019-05-30T19:49:38.653Z,1.83
2019-05-30T19:52:02.633Z,2.17
2019-05-30T19:54:26.050Z,2.10
2019-05-30T19:56:49.526Z,1.97
2019-05-30T19:59:12.934Z,2.13
2019-05-30T20:01:36.390Z,2.10
2019-05-30T20:03:59.819Z,1.90
2019-05-30T20:06:24.910Z,2.27
2019-05-30T20:08:55.415Z,2.10
2019-05-30T20:11:13.680Z,1.80
2019-05-30T20:13:37.248Z,2.13
2019-05-30T20:16:00.746Z,2.10
2019-05-30T20:18:24.437Z,1.93
2019-05-30T20:20:56.485Z,1.83
2019-05-30T20:23:13.057Z,2.00
2019-05-30T20:25:39.944Z,2.30
2019-05-30T20:28:01.689Z,1.77
2019-05-30T20:30:25.350Z,2.20
2019-05-30T20:32:48.774Z,2.10
2019-05-30T20:35:12.676Z,2.40
2019-05-30T20:37:36.793Z,2.13
2019-05-30T20:40:00.374Z,1.97
2019-05-30T20:42:23.834Z,1.90
2019-05-30T20:44:47.277Z,2.37
2019-05-30T20:47:10.856Z,2.47
2019-05-30T20:49:35.121Z,2.23
2019-05-30T20:51:58.820Z,2.10
2019-05-30T20:54:22.240Z,2.40
2019-05-30T20:56:48.706Z,2.40
2019-05-30T20:59:10.929Z,2.00
2019-05-30T21:01:35.590Z,2.53
2019-05-30T21:03:59.209Z,2.47
2019-05-30T21:06:23.678Z,2.43
2019-05-30T21:08:47.936Z,2.30
2019-05-30T21:11:12.277Z,2.30
2019-05-30T21:13:36.202Z,2.37
2019-05-30T21:16:02.207Z,1.90
2019-05-30T21:18:27.722Z,2.50
2019-05-30T21:20:51.152Z,2.10
2019-05-30T21:23:14.605Z,2.20
2019-05-30T21:25:39.005Z,2.60
2019-05-30T21:28:02.533Z,2.50
2019-05-30T21:30:25.998Z,2.27
2019-05-30T21:32:49.640Z,2.50
2019-05-30T21:35:14.243Z,2.20
2019-05-30T21:37:37.807Z,2.53
2019-05-30T21:40:01.269Z,2.70
2019-05-30T21:42:24.709Z,2.37
2019-05-30T21:44:51.423Z,2.40
2019-05-30T21:47:13.298Z,2.50
2019-05-30T21:49:36.759Z,2.70
2019-05-30T21:52:00.276Z,2.50
2019-05-30T21:54:23.745Z,2.60
2019-05-30T21:56:48.341Z,3.00
2019-05-30T21:59:12.242Z,3.00
2019-05-30T22:01:38.041Z,2.70
2019-05-30T22:04:01.934Z,2.60
2019-05-30T22:06:25.355Z,2.87
2019-05-30T22:08:49.343Z,3.30
2019-05-30T22:11:12.890Z,2.70
2019-05-30T22:13:36.562Z,2.80
2019-05-30T22:16:00.029Z,3.10
2019-05-30T22:18:23.454Z,3.30
2019-05-30T22:20:47.994Z,3.37
2019-05-30T22:23:11.524Z,3.10
2019-05-30T22:25:34.953Z,2.87
2019-05-30T22:27:58.409Z,3.70
2019-05-30T22:30:22.139Z,3.00
2019-05-30T22:32:46.579Z,3.27
2019-05-30T22:35:10.160Z,3.00
2019-05-30T22:37:33.618Z,3.17
2019-05-30T22:39:57.082Z,2.60
2019-05-30T22:42:20.545Z,3.50
2019-05-30T22:44:44.054Z,2.87
2019-05-30T22:47:07.471Z,3.20
2019-05-30T22:49:30.924Z,3.53
2019-05-30T22:51:54.381Z,3.50
2019-05-30T22:54:17.812Z,3.80
2019-05-30T22:56:41.268Z,3.80
2019-05-30T22:59:04.684Z,3.60
2019-05-30T23:01:28.390Z,4.27
2019-05-30T23:03:52.615Z,3.60
2019-05-30T23:06:17.074Z,3.53
2019-05-30T23:08:40.528Z,3.57
2019-05-30T23:11:04.210Z,3.00
2019-05-30T23:13:39.659Z,3.00
2019-05-30T23:15:52.861Z,2.90
2019-05-30T23:18:16.260Z,3.23
2019-05-30T23:20:39.721Z,3.27
2019-05-30T23:23:03.150Z,3.60
2019-05-30T23:25:26.612Z,2.97
2019-05-30T23:27:50.043Z,3.30
2019-05-30T23:30:13.730Z,2.93
2019-05-30T23:32:37.418Z,3.40
2019-05-30T23:35:00.966Z,3.60
2019-05-30T23:37:24.384Z,3.60
2019-05-30T23:39:48.746Z,3.10
2019-05-30T23:42:12.187Z,3.33
2019-05-30T23:44:35.654Z,3.20
2019-05-30T23:46:59.770Z,3.40
2019-05-30T23:49:23.275Z,3.47
2019-05-30T23:51:46.765Z,3.37
2019-05-30T23:54:10.253Z,3.47
2019-05-30T23:56:33.749Z,3.60
2019-05-30T23:58:57.210Z,3.90
